sensor_id;sensor_type;location;lat;lon;timestamp;pressure;altitude;pressure_sealevel;temperature;humidity
77723;BME280;67811;42.656;23.394;2023-07-31T00:01:47;94716.03;;;21.69;62.16
77723;BME280;67811;42.656;23.394;2023-07-31T00:04:12;94717.41;;;21.72;62.18
77723;BME280;67811;42.656;23.394;2023-07-31T00:06:37;94721.09;;;21.55;63.17
77723;BME280;67811;42.656;23.394;2023-07-31T00:09:03;94718.47;;;21.66;62.99
77723;BME280;67811;42.656;23.394;2023-07-31T00:11:28;94719.78;;;21.63;62.73
77723;BME280;67811;42.656;23.394;2023-07-31T00:13:53;94730.53;;;21.58;62.91
77723;BME280;67811;42.656;23.394;2023-07-31T00:16:19;94724.34;;;21.57;63.21
77723;BME280;67811;42.656;23.394;2023-07-31T00:18:44;94737.59;;;21.69;63.55
77723;BME280;67811;42.656;23.394;2023-07-31T00:21:09;94730.06;;;21.66;63.43
77723;BME280;67811;42.656;23.394;2023-07-31T00:23:34;94729.31;;;21.76;62.84
77723;BME280;67811;42.656;23.394;2023-07-31T00:26:00;94728.81;;;21.89;62.32
77723;BME280;67811;42.656;23.394;2023-07-31T00:28:25;94720.94;;;21.77;62.77
77723;BME280;67811;42.656;23.394;2023-07-31T00:30:51;94719.16;;;22.03;61.95
77723;BME280;67811;42.656;23.394;2023-07-31T00:33:16;94709.13;;;21.89;62.09
77723;BME280;67811;42.656;23.394;2023-07-31T00:35:41;94705.06;;;21.91;62.07
77723;BME280;67811;42.656;23.394;2023-07-31T00:38:06;94697.03;;;22.06;61.85
77723;BME280;67811;42.656;23.394;2023-07-31T00:40:36;94698.19;;;22.41;60.81
77723;BME280;67811;42.656;23.394;2023-07-31T00:43:01;94691.44;;;22.33;60.56
77723;BME280;67811;42.656;23.394;2023-07-31T00:45:26;94696.47;;;21.94;62.54
77723;BME280;67811;42.656;23.394;2023-07-31T00:47:51;94697.47;;;21.78;63.13
77723;BME280;67811;42.656;23.394;2023-07-31T00:50:17;94699.56;;;21.61;63.95
77723;BME280;67811;42.656;23.394;2023-07-31T00:52:42;94697.34;;;21.52;64.60
77723;BME280;67811;42.656;23.394;2023-07-31T00:55:08;94702.50;;;21.59;64.49
77723;BME280;67811;42.656;23.394;2023-07-31T00:57:34;94693.78;;;21.42;65.43
77723;BME280;67811;42.656;23.394;2023-07-31T01:00:02;94696.69;;;21.30;66.09
77723;BME280;67811;42.656;23.394;2023-07-31T01:02:27;94696.28;;;21.48;65.65
77723;BME280;67811;42.656;23.394;2023-07-31T01:04:52;94696.91;;;21.23;66.77
77723;BME280;67811;42.656;23.394;2023-07-31T01:07:31;94684.91;;;21.04;67.97
77723;BME280;67811;42.656;23.394;2023-07-31T01:10:09;94684.03;;;20.88;68.89
77723;BME280;67811;42.656;23.394;2023-07-31T01:12:38;94684.28;;;20.87;69.04
77723;BME280;67811;42.656;23.394;2023-07-31T01:15:08;94680.53;;;20.93;68.85
77723;BME280;67811;42.656;23.394;2023-07-31T01:17:33;94673.41;;;20.76;69.49
77723;BME280;67811;42.656;23.394;2023-07-31T01:20:02;94675.88;;;20.78;69.52
77723;BME280;67811;42.656;23.394;2023-07-31T01:28:09;94668.34;;;20.80;69.85
77723;BME280;67811;42.656;23.394;2023-07-31T01:30:41;94666.03;;;20.94;69.21
77723;BME280;67811;42.656;23.394;2023-07-31T01:33:07;94668.34;;;20.80;69.91
77723;BME280;67811;42.656;23.394;2023-07-31T01:35:36;94673.31;;;20.98;69.14
77723;BME280;67811;42.656;23.394;2023-07-31T01:38:02;94663.16;;;21.11;68.66
77723;BME280;67811;42.656;23.394;2023-07-31T01:40:28;94657.81;;;21.16;68.35
77723;BME280;67811;42.656;23.394;2023-07-31T01:42:53;94661.50;;;21.04;69.03
77723;BME280;67811;42.656;23.394;2023-07-31T01:45:18;94664.53;;;20.76;70.37
77723;BME280;67811;42.656;23.394;2023-07-31T01:47:44;94659.69;;;20.73;70.87
77723;BME280;67811;42.656;23.394;2023-07-31T01:50:09;94665.34;;;20.76;70.53
77723;BME280;67811;42.656;23.394;2023-07-31T01:52:34;94661.78;;;20.66;71.04
77723;BME280;67811;42.656;23.394;2023-07-31T01:55:00;94668.25;;;20.70;71.03
77723;BME280;67811;42.656;23.394;2023-07-31T01:57:25;94668.88;;;20.82;70.75
77723;BME280;67811;42.656;23.394;2023-07-31T01:59:51;94671.22;;;20.68;71.37
77723;BME280;67811;42.656;23.394;2023-07-31T02:02:17;94677.81;;;20.50;72.42
77723;BME280;67811;42.656;23.394;2023-07-31T02:04:42;94668.81;;;20.40;73.32
77723;BME280;67811;42.656;23.394;2023-07-31T02:07:07;94679.16;;;20.53;72.44
77723;BME280;67811;42.656;23.394;2023-07-31T02:09:33;94676.44;;;20.48;73.04
77723;BME280;67811;42.656;23.394;2023-07-31T02:11:58;94675.81;;;20.41;73.60
77723;BME280;67811;42.656;23.394;2023-07-31T02:14:23;94683.47;;;20.27;74.33
77723;BME280;67811;42.656;23.394;2023-07-31T02:16:48;94680.78;;;20.27;74.33
77723;BME280;67811;42.656;23.394;2023-07-31T02:19:14;94685.72;;;20.08;75.36
77723;BME280;67811;42.656;23.394;2023-07-31T02:21:39;94686.59;;;20.14;75.16
77723;BME280;67811;42.656;23.394;2023-07-31T02:24:04;94688.97;;;20.10;75.60
77723;BME280;67811;42.656;23.394;2023-07-31T02:26:30;94690.22;;;20.03;75.89
77723;BME280;67811;42.656;23.394;2023-07-31T02:28:55;94688.63;;;20.29;74.74
77723;BME280;67811;42.656;23.394;2023-07-31T02:31:20;94688.84;;;20.27;74.93
77723;BME280;67811;42.656;23.394;2023-07-31T02:33:45;94689.63;;;20.22;75.05
77723;BME280;67811;42.656;23.394;2023-07-31T02:36:11;94682.59;;;20.16;75.31
77723;BME280;67811;42.656;23.394;2023-07-31T02:38:36;94688.53;;;20.18;75.63
77723;BME280;67811;42.656;23.394;2023-07-31T02:41:01;94685.72;;;20.35;75.08
77723;BME280;67811;42.656;23.394;2023-07-31T02:43:26;94682.00;;;20.41;74.42
77723;BME280;67811;42.656;23.394;2023-07-31T02:45:52;94687.97;;;20.75;72.97
77723;BME280;67811;42.656;23.394;2023-07-31T02:48:18;94685.56;;;21.16;71.44
77723;BME280;67811;42.656;23.394;2023-07-31T02:50:43;94695.13;;;21.34;70.34
77723;BME280;67811;42.656;23.394;2023-07-31T02:53:08;94702.22;;;21.50;69.68
77723;BME280;67811;42.656;23.394;2023-07-31T02:55:33;94704.97;;;21.61;69.16
77723;BME280;67811;42.656;23.394;2023-07-31T02:57:59;94703.53;;;21.43;69.72
77723;BME280;67811;42.656;23.394;2023-07-31T03:00:24;94705.25;;;21.22;70.64
77723;BME280;67811;42.656;23.394;2023-07-31T03:02:49;94709.47;;;21.08;71.24
77723;BME280;67811;42.656;23.394;2023-07-31T03:05:14;94706.28;;;21.11;71.25
77723;BME280;67811;42.656;23.394;2023-07-31T03:07:40;94702.13;;;21.35;70.46
77723;BME280;67811;42.656;23.394;2023-07-31T03:10:05;94708.78;;;21.27;70.67
77723;BME280;67811;42.656;23.394;2023-07-31T03:12:31;94699.31;;;21.20;70.83
77723;BME280;67811;42.656;23.394;2023-07-31T03:14:56;94702.13;;;20.98;71.75
77723;BME280;67811;42.656;23.394;2023-07-31T03:17:21;94690.19;;;20.84;71.92
77723;BME280;67811;42.656;23.394;2023-07-31T03:19:47;94696.84;;;20.76;72.47
77723;BME280;67811;42.656;23.394;2023-07-31T03:22:12;94679.97;;;20.53;73.61
77723;BME280;67811;42.656;23.394;2023-07-31T03:24:37;94691.78;;;20.47;73.71
77723;BME280;67811;42.656;23.394;2023-07-31T03:27:02;94706.75;;;20.43;73.58
77723;BME280;67811;42.656;23.394;2023-07-31T03:29:28;94705.63;;;20.34;74.32
77723;BME280;67811;42.656;23.394;2023-07-31T03:31:53;94711.69;;;20.46;73.99
77723;BME280;67811;42.656;23.394;2023-07-31T03:34:18;94714.28;;;20.41;74.30
77723;BME280;67811;42.656;23.394;2023-07-31T03:36:44;94711.91;;;20.45;74.16
77723;BME280;67811;42.656;23.394;2023-07-31T03:39:09;94710.03;;;20.45;74.29
77723;BME280;67811;42.656;23.394;2023-07-31T03:41:34;94720.00;;;20.45;74.31
77723;BME280;67811;42.656;23.394;2023-07-31T03:44:00;94714.81;;;20.38;74.75
77723;BME280;67811;42.656;23.394;2023-07-31T03:46:25;94723.38;;;20.35;74.79
77723;BME280;67811;42.656;23.394;2023-07-31T03:48:50;94716.25;;;20.46;74.22
77723;BME280;67811;42.656;23.394;2023-07-31T03:51:16;94723.28;;;20.79;73.38
77723;BME280;67811;42.656;23.394;2023-07-31T03:53:42;94720.56;;;20.79;72.76
77723;BME280;67811;42.656;23.394;2023-07-31T03:56:07;94721.44;;;20.85;72.32
77723;BME280;67811;42.656;23.394;2023-07-31T03:58:32;94721.69;;;20.83;72.33
77723;BME280;67811;42.656;23.394;2023-07-31T04:00:57;94733.81;;;20.86;72.25
77723;BME280;67811;42.656;23.394;2023-07-31T04:03:23;94739.03;;;20.97;71.64
77723;BME280;67811;42.656;23.394;2023-07-31T04:05:48;94733.16;;;21.05;70.94
77723;BME280;67811;42.656;23.394;2023-07-31T04:08:13;94734.09;;;20.84;71.29
77723;BME280;67811;42.656;23.394;2023-07-31T04:10:39;94732.56;;;20.98;71.00
77723;BME280;67811;42.656;23.394;2023-07-31T04:13:04;94734.22;;;20.99;70.96
77723;BME280;67811;42.656;23.394;2023-07-31T04:15:29;94739.59;;;20.99;71.31
77723;BME280;67811;42.656;23.394;2023-07-31T04:17:54;94741.13;;;20.90;71.27
77723;BME280;67811;42.656;23.394;2023-07-31T04:20:20;94750.91;;;21.01;70.99
77723;BME280;67811;42.656;23.394;2023-07-31T04:22:45;94746.88;;;21.04;70.96
77723;BME280;67811;42.656;23.394;2023-07-31T04:25:10;94752.28;;;21.04;71.02
77723;BME280;67811;42.656;23.394;2023-07-31T04:27:36;94745.31;;;21.08;70.80
77723;BME280;67811;42.656;23.394;2023-07-31T04:30:01;94747.69;;;20.99;70.75
77723;BME280;67811;42.656;23.394;2023-07-31T04:32:26;94753.97;;;20.78;71.78
77723;BME280;67811;42.656;23.394;2023-07-31T04:34:51;94751.19;;;20.68;72.04
77723;BME280;67811;42.656;23.394;2023-07-31T04:37:17;94754.69;;;20.68;71.92
77723;BME280;67811;42.656;23.394;2023-07-31T04:39:42;94745.72;;;20.90;71.26
77723;BME280;67811;42.656;23.394;2023-07-31T04:42:07;94751.72;;;21.02;71.12
77723;BME280;67811;42.656;23.394;2023-07-31T04:44:32;94747.88;;;20.93;70.60
77723;BME280;67811;42.656;23.394;2023-07-31T04:46:58;94753.72;;;21.17;70.93
77723;BME280;67811;42.656;23.394;2023-07-31T04:49:23;94759.06;;;21.12;69.67
77723;BME280;67811;42.656;23.394;2023-07-31T04:51:48;94753.06;;;21.37;69.78
77723;BME280;67811;42.656;23.394;2023-07-31T04:54:13;94747.13;;;21.35;68.62
77723;BME280;67811;42.656;23.394;2023-07-31T04:56:39;94742.25;;;21.31;68.83
77723;BME280;67811;42.656;23.394;2023-07-31T04:59:04;94750.72;;;21.50;68.47
77723;BME280;67811;42.656;23.394;2023-07-31T05:01:29;94760.22;;;21.63;68.30
77723;BME280;67811;42.656;23.394;2023-07-31T05:03:55;94748.19;;;21.76;67.03
77723;BME280;67811;42.656;23.394;2023-07-31T05:06:20;94748.38;;;21.64;66.84
77723;BME280;67811;42.656;23.394;2023-07-31T05:08:45;94744.19;;;21.41;67.43
77723;BME280;67811;42.656;23.394;2023-07-31T05:11:10;94744.09;;;21.68;67.58
77723;BME280;67811;42.656;23.394;2023-07-31T05:13:36;94745.94;;;21.63;67.20
77723;BME280;67811;42.656;23.394;2023-07-31T05:16:01;94742.22;;;21.74;66.56
77723;BME280;67811;42.656;23.394;2023-07-31T05:18:26;94752.41;;;21.62;67.24
77723;BME280;67811;42.656;23.394;2023-07-31T05:20:51;94736.56;;;21.70;66.88
77723;BME280;67811;42.656;23.394;2023-07-31T05:23:17;94740.03;;;21.66;67.02
77723;BME280;67811;42.656;23.394;2023-07-31T05:25:42;94749.69;;;21.56;67.00
77723;BME280;67811;42.656;23.394;2023-07-31T05:28:07;94742.91;;;21.49;67.19
77723;BME280;67811;42.656;23.394;2023-07-31T05:30:33;94742.44;;;21.62;66.46
77723;BME280;67811;42.656;23.394;2023-07-31T05:32:58;94746.94;;;21.99;65.33
77723;BME280;67811;42.656;23.394;2023-07-31T05:35:23;94740.00;;;22.18;64.70
77723;BME280;67811;42.656;23.394;2023-07-31T05:37:49;94744.13;;;22.51;64.13
77723;BME280;67811;42.656;23.394;2023-07-31T05:40:14;94741.50;;;23.02;61.94
77723;BME280;67811;42.656;23.394;2023-07-31T05:42:40;94741.22;;;22.99;61.25
77723;BME280;67811;42.656;23.394;2023-07-31T05:45:06;94734.19;;;23.13;59.75
77723;BME280;67811;42.656;23.394;2023-07-31T05:47:32;94739.31;;;23.25;59.63
77723;BME280;67811;42.656;23.394;2023-07-31T05:49:57;94738.75;;;23.18;59.66
77723;BME280;67811;42.656;23.394;2023-07-31T05:52:22;94743.56;;;23.72;59.11
77723;BME280;67811;42.656;23.394;2023-07-31T05:54:47;94739.75;;;23.73;58.54
77723;BME280;67811;42.656;23.394;2023-07-31T05:57:13;94743.22;;;23.93;57.14
77723;BME280;67811;42.656;23.394;2023-07-31T05:59:38;94750.78;;;23.97;56.68
77723;BME280;67811;42.656;23.394;2023-07-31T06:02:03;94723.03;;;23.55;56.62
77723;BME280;67811;42.656;23.394;2023-07-31T06:04:29;94741.75;;;23.21;57.58
77723;BME280;67811;42.656;23.394;2023-07-31T06:06:54;94742.56;;;23.06;58.56
77723;BME280;67811;42.656;23.394;2023-07-31T06:09:19;94749.31;;;23.04;58.89
77723;BME280;67811;42.656;23.394;2023-07-31T06:11:44;94744.72;;;22.99;58.24
77723;BME280;67811;42.656;23.394;2023-07-31T06:14:10;94754.44;;;23.36;57.73
77723;BME280;67811;42.656;23.394;2023-07-31T06:16:35;94750.38;;;23.28;57.57
77723;BME280;67811;42.656;23.394;2023-07-31T06:19:00;94746.84;;;23.43;57.28
77723;BME280;67811;42.656;23.394;2023-07-31T06:21:26;94737.44;;;23.15;56.46
77723;BME280;67811;42.656;23.394;2023-07-31T06:23:51;94752.03;;;23.14;57.04
77723;BME280;67811;42.656;23.394;2023-07-31T06:26:16;94736.00;;;23.69;54.58
77723;BME280;67811;42.656;23.394;2023-07-31T06:28:42;94747.19;;;24.11;53.66
77723;BME280;67811;42.656;23.394;2023-07-31T06:31:07;94747.75;;;24.08;52.82
77723;BME280;67811;42.656;23.394;2023-07-31T06:33:32;94738.47;;;24.25;52.62
77723;BME280;67811;42.656;23.394;2023-07-31T06:35:57;94725.13;;;24.43;52.17
77723;BME280;67811;42.656;23.394;2023-07-31T06:38:25;94728.91;;;24.48;51.30
77723;BME280;67811;42.656;23.394;2023-07-31T06:40:51;94722.22;;;24.30;51.45
77723;BME280;67811;42.656;23.394;2023-07-31T06:43:16;94728.41;;;24.40;51.29
77723;BME280;67811;42.656;23.394;2023-07-31T06:45:41;94737.88;;;24.82;51.07
77723;BME280;67811;42.656;23.394;2023-07-31T06:48:06;94728.63;;;24.44;51.96
77723;BME280;67811;42.656;23.394;2023-07-31T06:50:32;94751.81;;;24.11;51.92
77723;BME280;67811;42.656;23.394;2023-07-31T06:52:57;94748.09;;;23.91;52.17
77723;BME280;67811;42.656;23.394;2023-07-31T06:55:23;94751.22;;;24.24;52.15
77723;BME280;67811;42.656;23.394;2023-07-31T06:57:51;94731.69;;;24.27;51.28
77723;BME280;67811;42.656;23.394;2023-07-31T07:00:17;94753.94;;;24.19;52.20
77723;BME280;67811;42.656;23.394;2023-07-31T07:02:43;94746.94;;;24.67;50.58
77723;BME280;67811;42.656;23.394;2023-07-31T07:05:08;94749.56;;;24.78;50.41
77723;BME280;67811;42.656;23.394;2023-07-31T07:07:34;94739.81;;;25.45;48.91
77723;BME280;67811;42.656;23.394;2023-07-31T07:10:00;94742.31;;;25.36;48.22
77723;BME280;67811;42.656;23.394;2023-07-31T07:12:28;94736.41;;;25.00;48.61
77723;BME280;67811;42.656;23.394;2023-07-31T07:14:54;94736.88;;;25.12;48.60
77723;BME280;67811;42.656;23.394;2023-07-31T07:17:19;94741.19;;;25.71;47.99
77723;BME280;67811;42.656;23.394;2023-07-31T07:19:45;94739.22;;;26.01;46.61
77723;BME280;67811;42.656;23.394;2023-07-31T07:22:10;94742.25;;;25.99;46.42
77723;BME280;67811;42.656;23.394;2023-07-31T07:24:35;94738.38;;;26.24;45.43
77723;BME280;67811;42.656;23.394;2023-07-31T07:27:00;94750.28;;;26.10;46.14
77723;BME280;67811;42.656;23.394;2023-07-31T07:29:26;94744.00;;;26.09;46.06
77723;BME280;67811;42.656;23.394;2023-07-31T07:31:51;94748.75;;;25.74;46.41
77723;BME280;67811;42.656;23.394;2023-07-31T07:34:16;94756.34;;;26.20;45.72
77723;BME280;67811;42.656;23.394;2023-07-31T07:36:42;94754.00;;;25.66;45.63
77723;BME280;67811;42.656;23.394;2023-07-31T07:39:09;94763.09;;;25.80;45.83
77723;BME280;67811;42.656;23.394;2023-07-31T07:41:34;94765.19;;;24.91;47.90
77723;BME280;67811;42.656;23.394;2023-07-31T07:44:00;94767.47;;;25.18;47.64
77723;BME280;67811;42.656;23.394;2023-07-31T07:46:25;94768.03;;;25.10;48.51
77723;BME280;67811;42.656;23.394;2023-07-31T07:48:50;94761.13;;;25.28;47.68
77723;BME280;67811;42.656;23.394;2023-07-31T07:51:15;94762.34;;;25.69;46.82
77723;BME280;67811;42.656;23.394;2023-07-31T07:53:41;94765.34;;;25.68;46.70
77723;BME280;67811;42.656;23.394;2023-07-31T07:56:06;94773.28;;;26.36;45.45
77723;BME280;67811;42.656;23.394;2023-07-31T07:58:31;94766.88;;;26.70;44.44
77723;BME280;67811;42.656;23.394;2023-07-31T08:00:57;94770.31;;;26.94;43.54
77723;BME280;67811;42.656;23.394;2023-07-31T08:03:22;94761.19;;;27.23;43.12
77723;BME280;67811;42.656;23.394;2023-07-31T08:05:47;94753.22;;;27.59;41.49
77723;BME280;67811;42.656;23.394;2023-07-31T08:08:16;94755.25;;;27.53;41.28
77723;BME280;67811;42.656;23.394;2023-07-31T08:10:41;94752.97;;;28.29;40.57
77723;BME280;67811;42.656;23.394;2023-07-31T08:13:07;94755.06;;;27.64;40.01
77723;BME280;67811;42.656;23.394;2023-07-31T08:15:32;94755.44;;;27.24;39.60
77723;BME280;67811;42.656;23.394;2023-07-31T08:17:58;94770.72;;;27.39;40.46
77723;BME280;67811;42.656;23.394;2023-07-31T08:20:23;94755.31;;;28.08;38.97
77723;BME280;67811;42.656;23.394;2023-07-31T08:22:48;94751.78;;;27.80;40.24
77723;BME280;67811;42.656;23.394;2023-07-31T08:25:14;94761.19;;;27.55;41.11
77723;BME280;67811;42.656;23.394;2023-07-31T08:27:43;94763.47;;;27.81;39.95
77723;BME280;67811;42.656;23.394;2023-07-31T08:30:08;94754.38;;;27.72;40.70
77723;BME280;67811;42.656;23.394;2023-07-31T08:32:34;94753.72;;;28.35;39.45
77723;BME280;67811;42.656;23.394;2023-07-31T08:34:59;94752.94;;;28.71;38.71
77723;BME280;67811;42.656;23.394;2023-07-31T08:37:24;94755.81;;;28.52;39.23
77723;BME280;67811;42.656;23.394;2023-07-31T08:39:50;94751.97;;;28.89;38.08
77723;BME280;67811;42.656;23.394;2023-07-31T08:42:15;94749.69;;;29.72;37.11
77723;BME280;67811;42.656;23.394;2023-07-31T08:44:41;94748.75;;;27.96;39.38
77723;BME280;67811;42.656;23.394;2023-07-31T08:47:07;94753.91;;;28.39;38.70
77723;BME280;67811;42.656;23.394;2023-07-31T08:49:33;94752.28;;;28.10;38.79
77723;BME280;67811;42.656;23.394;2023-07-31T08:51:59;94750.38;;;28.24;38.50
77723;BME280;67811;42.656;23.394;2023-07-31T08:54:25;94759.72;;;27.91;39.03
77723;BME280;67811;42.656;23.394;2023-07-31T08:56:52;94755.94;;;28.47;37.75
77723;BME280;67811;42.656;23.394;2023-07-31T08:59:18;94749.69;;;28.32;38.41
77723;BME280;67811;42.656;23.394;2023-07-31T09:01:49;94750.16;;;28.48;37.80
77723;BME280;67811;42.656;23.394;2023-07-31T09:04:16;94744.88;;;28.66;37.56
77723;BME280;67811;42.656;23.394;2023-07-31T09:06:43;94744.97;;;27.64;38.13
77723;BME280;67811;42.656;23.394;2023-07-31T09:09:09;94752.78;;;27.98;38.43
77723;BME280;67811;42.656;23.394;2023-07-31T09:11:35;94744.81;;;28.43;37.62
77723;BME280;67811;42.656;23.394;2023-07-31T09:14:00;94737.31;;;28.99;36.64
77723;BME280;67811;42.656;23.394;2023-07-31T09:16:29;94742.31;;;29.05;35.88
77723;BME280;67811;42.656;23.394;2023-07-31T09:18:56;94746.94;;;28.96;36.65
77723;BME280;67811;42.656;23.394;2023-07-31T09:21:23;94742.41;;;29.36;35.44
77723;BME280;67811;42.656;23.394;2023-07-31T09:23:49;94747.19;;;29.53;35.09
77723;BME280;67811;42.656;23.394;2023-07-31T09:28:55;94740.13;;;29.07;35.78
77723;BME280;67811;42.656;23.394;2023-07-31T09:31:40;94732.41;;;28.37;36.34
77723;BME280;67811;42.656;23.394;2023-07-31T09:34:05;94743.41;;;28.04;37.38
77723;BME280;67811;42.656;23.394;2023-07-31T09:36:30;94732.28;;;28.28;37.19
77723;BME280;67811;42.656;23.394;2023-07-31T09:38:56;94735.09;;;28.51;36.51
77723;BME280;67811;42.656;23.394;2023-07-31T09:41:26;94726.03;;;28.28;36.70
77723;BME280;67811;42.656;23.394;2023-07-31T09:43:54;94725.34;;;27.95;38.46
77723;BME280;67811;42.656;23.394;2023-07-31T09:46:20;94723.94;;;28.25;37.38
77723;BME280;67811;42.656;23.394;2023-07-31T09:48:46;94724.44;;;28.77;36.53
77723;BME280;67811;42.656;23.394;2023-07-31T09:51:11;94724.41;;;28.91;36.65
77723;BME280;67811;42.656;23.394;2023-07-31T09:53:37;94719.25;;;29.56;35.40
77723;BME280;67811;42.656;23.394;2023-07-31T09:56:02;94716.50;;;29.87;34.83
77723;BME280;67811;42.656;23.394;2023-07-31T09:58:29;94722.34;;;30.52;33.48
77723;BME280;67811;42.656;23.394;2023-07-31T10:00:55;94718.09;;;29.88;34.67
77723;BME280;67811;42.656;23.394;2023-07-31T10:03:22;94713.34;;;29.63;34.91
77723;BME280;67811;42.656;23.394;2023-07-31T10:05:50;94722.34;;;29.41;35.07
77723;BME280;67811;42.656;23.394;2023-07-31T10:08:15;94717.97;;;29.93;34.31
77723;BME280;67811;42.656;23.394;2023-07-31T10:10:45;94705.84;;;29.77;34.72
77723;BME280;67811;42.656;23.394;2023-07-31T10:13:12;94698.19;;;29.26;34.26
77723;BME280;67811;42.656;23.394;2023-07-31T10:15:38;94712.56;;;28.95;35.69
77723;BME280;67811;42.656;23.394;2023-07-31T10:18:06;94709.72;;;29.00;35.33
77723;BME280;67811;42.656;23.394;2023-07-31T10:20:31;94710.03;;;28.99;35.15
77723;BME280;67811;42.656;23.394;2023-07-31T10:22:56;94711.22;;;28.70;35.81
77723;BME280;67811;42.656;23.394;2023-07-31T10:25:22;94707.56;;;28.39;36.11
77723;BME280;67811;42.656;23.394;2023-07-31T10:27:49;94715.84;;;28.20;37.03
77723;BME280;67811;42.656;23.394;2023-07-31T10:30:16;94694.66;;;29.03;35.99
77723;BME280;67811;42.656;23.394;2023-07-31T10:32:43;94708.34;;;28.53;36.08
77723;BME280;67811;42.656;23.394;2023-07-31T10:35:11;94709.47;;;28.52;35.87
77723;BME280;67811;42.656;23.394;2023-07-31T10:37:38;94712.16;;;29.02;35.97
77723;BME280;67811;42.656;23.394;2023-07-31T10:40:12;94694.25;;;29.40;34.09
77723;BME280;67811;42.656;23.394;2023-07-31T10:42:48;94699.75;;;29.80;33.46
77723;BME280;67811;42.656;23.394;2023-07-31T10:46:05;94693.84;;;29.56;33.78
77723;BME280;67811;42.656;23.394;2023-07-31T10:48:15;94688.78;;;29.40;33.94
77723;BME280;67811;42.656;23.394;2023-07-31T10:51:07;94686.03;;;29.63;33.10
77723;BME280;67811;42.656;23.394;2023-07-31T10:53:33;94682.19;;;29.64;33.34
77723;BME280;67811;42.656;23.394;2023-07-31T10:56:02;94674.69;;;28.94;34.04
77723;BME280;67811;42.656;23.394;2023-07-31T10:58:28;94682.28;;;28.60;35.03
77723;BME280;67811;42.656;23.394;2023-07-31T11:00:59;94670.03;;;28.94;33.96
77723;BME280;67811;42.656;23.394;2023-07-31T11:03:27;94661.72;;;29.92;32.91
77723;BME280;67811;42.656;23.394;2023-07-31T11:06:01;94671.34;;;28.97;33.79
77723;BME280;67811;42.656;23.394;2023-07-31T11:08:28;94674.22;;;29.23;33.12
77723;BME280;67811;42.656;23.394;2023-07-31T11:13:29;94669.53;;;29.77;32.56
77723;BME280;67811;42.656;23.394;2023-07-31T11:15:55;94672.16;;;30.39;31.84
77723;BME280;67811;42.656;23.394;2023-07-31T11:18:20;94654.22;;;29.58;32.77
77723;BME280;67811;42.656;23.394;2023-07-31T11:20:46;94670.78;;;28.86;33.37
77723;BME280;67811;42.656;23.394;2023-07-31T11:23:11;94669.53;;;29.14;32.94
77723;BME280;67811;42.656;23.394;2023-07-31T11:25:38;94673.28;;;29.27;32.27
77723;BME280;67811;42.656;23.394;2023-07-31T11:28:08;94664.34;;;29.58;31.35
77723;BME280;67811;42.656;23.394;2023-07-31T11:30:34;94661.50;;;30.20;30.65
77723;BME280;67811;42.656;23.394;2023-07-31T11:33:01;94662.19;;;30.86;30.37
77723;BME280;67811;42.656;23.394;2023-07-31T11:35:27;94667.88;;;30.07;30.75
77723;BME280;67811;42.656;23.394;2023-07-31T11:37:52;94667.31;;;29.79;31.30
77723;BME280;67811;42.656;23.394;2023-07-31T11:40:18;94661.22;;;29.51;31.86
77723;BME280;67811;42.656;23.394;2023-07-31T11:42:43;94647.22;;;29.44;31.66
77723;BME280;67811;42.656;23.394;2023-07-31T11:45:08;94654.28;;;29.13;32.39
77723;BME280;67811;42.656;23.394;2023-07-31T11:47:35;94655.34;;;28.81;32.92
77723;BME280;67811;42.656;23.394;2023-07-31T11:50:01;94663.97;;;28.25;33.71
77723;BME280;67811;42.656;23.394;2023-07-31T11:52:28;94656.50;;;28.30;34.28
77723;BME280;67811;42.656;23.394;2023-07-31T11:54:54;94645.47;;;28.49;33.48
77723;BME280;67811;42.656;23.394;2023-07-31T11:57:20;94654.00;;;28.56;33.60
77723;BME280;67811;42.656;23.394;2023-07-31T11:59:46;94649.34;;;28.93;34.10
77723;BME280;67811;42.656;23.394;2023-07-31T12:02:11;94656.91;;;28.74;34.11
77723;BME280;67811;42.656;23.394;2023-07-31T12:04:36;94655.25;;;28.73;33.80
77723;BME280;67811;42.656;23.394;2023-07-31T12:07:02;94645.59;;;29.34;32.42
77723;BME280;67811;42.656;23.394;2023-07-31T12:09:27;94644.13;;;29.36;32.91
77723;BME280;67811;42.656;23.394;2023-07-31T12:11:52;94641.63;;;29.88;31.53
77723;BME280;67811;42.656;23.394;2023-07-31T12:14:25;94646.25;;;30.28;31.49
77723;BME280;67811;42.656;23.394;2023-07-31T12:16:58;94642.06;;;29.42;31.78
77723;BME280;67811;42.656;23.394;2023-07-31T12:19:25;94634.56;;;30.05;31.06
77723;BME280;67811;42.656;23.394;2023-07-31T12:21:51;94630.31;;;30.47;30.33
77723;BME280;67811;42.656;23.394;2023-07-31T12:24:18;94637.69;;;30.21;31.28
77723;BME280;67811;42.656;23.394;2023-07-31T12:26:45;94634.91;;;29.95;31.46
77723;BME280;67811;42.656;23.394;2023-07-31T12:29:11;94637.41;;;30.48;30.78
77723;BME280;67811;42.656;23.394;2023-07-31T12:31:36;94625.81;;;30.51;30.79
77723;BME280;67811;42.656;23.394;2023-07-31T12:34:01;94619.50;;;30.07;31.00
77723;BME280;67811;42.656;23.394;2023-07-31T12:36:26;94630.84;;;28.90;32.89
77723;BME280;67811;42.656;23.394;2023-07-31T12:38:52;94631.03;;;28.49;34.04
77723;BME280;67811;42.656;23.394;2023-07-31T12:41:18;94625.03;;;28.60;34.13
77723;BME280;67811;42.656;23.394;2023-07-31T12:43:45;94627.06;;;28.77;33.89
77723;BME280;67811;42.656;23.394;2023-07-31T12:46:11;94628.19;;;28.76;33.72
77723;BME280;67811;42.656;23.394;2023-07-31T12:48:40;94616.13;;;28.69;33.73
77723;BME280;67811;42.656;23.394;2023-07-31T12:51:05;94616.53;;;28.26;34.67
77723;BME280;67811;42.656;23.394;2023-07-31T12:53:31;94614.81;;;28.30;34.40
77723;BME280;67811;42.656;23.394;2023-07-31T12:55:56;94613.91;;;27.98;34.97